Time;durP1;ratioP1;P1;durP2;ratioP2;P2;SDS_P1;SDS_P2;PMS_P1;PMS_P2;Temp;Humidity;BMP_temperature;BMP_pressure;BME280_temperature;BME280_humidity;BME280_pressure;Samples;Min_cycle;Max_cycle;Signal;HPM_P1;HPM_P2
2022/12/17 13:06:47;;;;;;;13.93;9.50;;;;;;;13.76;100.00;94883.63;5093656;28;20484;-74
2022/12/17 13:09:45;;;;;;;16.67;7.47;;;;;;;13.61;100.00;94893.88;5093772;28;20451;-75
2022/12/17 13:12:22;;;;;;;10.20;7.17;;;;;;;13.45;100.00;94886.59;5011786;28;20440;-74
2022/12/17 13:14:54;;;;;;;13.37;10.10;;;;;;;13.39;100.00;94878.44;5011994;28;20435;-73
2022/12/17 13:17:29;;;;;;;11.43;6.87;;;;;;;13.24;100.00;94886.00;5011819;28;21073;-76
2022/12/17 13:20:01;;;;;;;9.70;6.10;;;;;;;13.29;100.00;94896.94;5011765;28;20490;-74
2022/12/17 13:22:29;;;;;;;6.97;5.10;;;;;;;13.02;100.00;94898.56;5012261;28;20493;-74
2022/12/17 13:25:09;;;;;;;8.83;7.00;;;;;;;13.18;100.00;94891.84;4962842;28;20440;-73
2022/12/17 13:27:39;;;;;;;10.13;6.93;;;;;;;13.12;100.00;94881.88;5011904;28;20523;-73
2022/12/17 13:30:20;;;;;;;10.63;6.37;;;;;;;13.00;100.00;94895.22;5011428;28;20486;-74
2022/12/17 13:32:58;;;;;;;11.50;7.70;;;;;;;13.08;100.00;94905.06;5011373;28;20527;-74
2022/12/17 13:35:34;;;;;;;7.10;6.23;;;;;;;13.15;100.00;94913.19;5011236;28;20447;-74
2022/12/17 13:38:09;;;;;;;24.57;15.00;;;;;;;13.15;100.00;94910.56;5011183;28;20439;-74
2022/12/17 13:40:47;;;;;;;9.17;8.13;;;;;;;13.13;100.00;94912.50;5010861;28;20450;-73
2022/12/17 13:43:17;;;;;;;10.47;7.90;;;;;;;13.14;100.00;94917.63;5010622;28;20447;-74
2022/12/17 13:45:44;;;;;;;18.20;13.60;;;;;;;13.21;100.00;94913.47;5010585;28;20456;-74
2022/12/17 13:48:21;;;;;;;22.47;14.43;;;;;;;13.30;100.00;94917.06;5035096;28;20460;-74
2022/12/17 13:50:54;;;;;;;15.83;12.27;;;;;;;13.37;100.00;94917.31;5092668;28;20487;-73
2022/12/17 13:53:21;;;;;;;22.33;15.10;;;;;;;13.42;100.00;94921.16;5045537;28;20475;-74
2022/12/17 13:55:50;;;;;;;8.57;7.20;;;;;;;13.31;100.00;94916.91;5102184;28;20827;-74
2022/12/17 13:58:26;;;;;;;9.77;6.13;;;;;;;13.23;100.00;94910.69;5097181;28;20482;-74
2022/12/17 14:01:04;;;;;;;7.83;6.27;;;;;;;13.39;100.00;94934.63;5103541;28;20474;-74
2022/12/17 14:03:32;;;;;;;10.63;5.93;;;;;;;13.15;100.00;94934.28;5104671;28;20432;-76
2022/12/17 14:05:59;;;;;;;5.33;4.67;;;;;;;13.01;100.00;94930.31;5104875;28;20451;-75
2022/12/17 14:08:30;;;;;;;11.30;7.80;;;;;;;13.01;100.00;94927.69;5105383;28;20444;-75
2022/12/17 14:12:20;;;;;;;10.83;9.00;;;;;;;13.25;100.00;94956.16;5073665;28;20484;-75
2022/12/17 14:13:46;;;;;;;25.50;14.20;;;;;;;13.33;100.00;94953.66;5110599;28;20491;-75
2022/12/17 14:16:16;;;;;;;15.90;12.97;;;;;;;12.96;100.00;94938.63;5109955;28;20477;-75
2022/12/17 14:18:52;;;;;;;16.03;9.00;;;;;;;12.80;100.00;94935.78;5109205;28;20860;-74
2022/12/17 14:21:19;;;;;;;11.53;7.40;;;;;;;12.66;100.00;94934.41;5109362;28;20918;-75
2022/12/17 14:23:49;;;;;;;14.77;10.97;;;;;;;12.83;100.00;94946.03;5109944;28;20459;-75
2022/12/17 14:26:17;;;;;;;17.20;12.90;;;;;;;12.94;100.00;94966.09;5112657;28;20436;-74
2022/12/17 14:28:48;;;;;;;22.93;15.30;;;;;;;12.94;100.00;94959.00;5110091;28;20436;-74
2022/12/17 14:31:20;;;;;;;22.43;14.47;;;;;;;12.95;100.00;94955.41;5110788;28;20490;-76
2022/12/17 14:34:00;;;;;;;19.83;13.73;;;;;;;13.00;100.00;94957.59;5099765;28;20444;-74
2022/12/17 14:36:28;;;;;;;24.73;15.50;;;;;;;13.02;100.00;94945.16;5096994;28;20861;-77
2022/12/17 14:38:58;;;;;;;24.80;15.43;;;;;;;13.06;100.00;94946.53;5044311;28;20444;-75
2022/12/17 14:44:19;;;;;;;73.97;33.20;;;;;;;13.09;100.00;94958.56;5096007;28;20834;-75
2022/12/17 14:46:46;;;;;;;56.20;31.73;;;;;;;13.01;100.00;94946.97;5096193;28;20546;-74
2022/12/17 14:49:18;;;;;;;73.20;40.10;;;;;;;12.92;100.00;94960.97;5096664;28;20462;-75
2022/12/17 14:51:45;;;;;;;59.50;35.60;;;;;;;12.96;100.00;94957.06;5096446;28;20487;-75
2022/12/17 14:54:24;;;;;;;37.67;25.37;;;;;;;13.00;100.00;94973.41;5096175;28;20444;-74
2022/12/17 14:56:52;;;;;;;43.97;28.77;;;;;;;12.95;100.00;94981.75;5086248;28;20452;-75
2022/12/17 14:59:31;;;;;;;38.13;26.93;;;;;;;12.92;100.00;94976.75;5076299;28;20946;-74
2022/12/17 15:02:00;;;;;;;32.40;21.53;;;;;;;12.96;100.00;94980.78;5036431;28;20523;-76
2022/12/17 15:04:30;;;;;;;56.87;41.80;;;;;;;13.00;100.00;94984.78;5072104;28;20978;-75
2022/12/17 15:06:57;;;;;;;46.90;34.57;;;;;;;13.03;100.00;94992.41;5038761;28;20448;-75
2022/12/17 15:09:24;;;;;;;45.13;30.70;;;;;;;13.00;100.00;94989.22;5042726;28;20525;-75
2022/12/17 15:11:51;;;;;;;43.60;28.10;;;;;;;12.98;100.00;94988.53;5069228;28;20546;-76
2022/12/17 15:14:17;;;;;;;49.27;28.80;;;;;;;12.99;100.00;94983.13;5061499;28;20449;-75
2022/12/17 15:16:44;;;;;;;46.80;34.20;;;;;;;12.99;100.00;94991.03;5075218;28;20448;-74
2022/12/17 15:19:11;;;;;;;38.33;27.07;;;;;;;13.01;100.00;94991.72;5033082;28;20442;-75
2022/12/17 15:21:40;;;;;;;28.80;19.40;;;;;;;12.99;100.00;94995.47;5054940;28;20445;-76
2022/12/17 15:24:11;;;;;;;24.20;16.93;;;;;;;12.94;100.00;95013.50;5068499;28;20477;-76
2022/12/17 15:26:38;;;;;;;45.27;32.17;;;;;;;12.84;100.00;95021.41;5056224;28;20568;-76
2022/12/17 15:29:05;;;;;;;32.20;20.27;;;;;;;12.71;100.00;95020.84;5067643;28;20948;-74
2022/12/17 15:31:31;;;;;;;19.47;14.87;;;;;;;12.69;100.00;95004.38;5020258;28;20543;-75
2022/12/17 15:33:58;;;;;;;17.10;15.30;;;;;;;12.57;100.00;95008.13;5033643;28;20433;-76
2022/12/17 15:36:25;;;;;;;26.37;20.13;;;;;;;12.61;100.00;95025.31;5068181;28;20441;-75
2022/12/17 15:38:53;;;;;;;26.50;17.77;;;;;;;12.63;100.00;95016.31;5055913;28;20480;-74
2022/12/17 15:44:04;;;;;;;23.77;16.63;;;;;;;12.51;100.00;95012.16;5072069;28;20440;-76
2022/12/17 15:46:31;;;;;;;20.33;16.07;;;;;;;12.49;100.00;95021.16;5065948;28;20448;-76
2022/12/17 15:48:58;;;;;;;22.20;17.27;;;;;;;12.50;100.00;95034.19;5071189;28;20437;-75
2022/12/17 15:51:25;;;;;;;30.27;20.27;;;;;;;12.48;100.00;95040.56;5071721;28;20519;-74
2022/12/17 15:53:56;;;;;;;30.30;20.30;;;;;;;12.39;100.00;95021.97;5074811;28;20444;-75
2022/12/17 15:56:30;;;;;;;24.60;20.33;;;;;;;12.35;100.00;95007.44;5072463;28;20464;-74
2022/12/17 15:59:00;;;;;;;22.03;17.20;;;;;;;12.34;100.00;95018.94;5067151;28;20441;-75
2022/12/17 16:01:27;;;;;;;25.07;17.27;;;;;;;12.59;100.00;95022.81;5072032;28;20471;-76
2022/12/17 16:03:54;;;;;;;40.17;23.20;;;;;;;12.52;100.00;95010.34;5095237;28;20449;-76
2022/12/17 16:06:20;;;;;;;45.47;26.20;;;;;;;12.41;100.00;95027.94;5095280;28;20447;-76
2022/12/17 16:08:47;;;;;;;105.97;56.47;;;;;;;12.35;100.00;95028.47;5085807;28;20448;-77
2022/12/17 16:11:15;;;;;;;90.27;48.87;;;;;;;12.21;100.00;95034.16;5074729;28;20495;-77
2022/12/17 16:13:42;;;;;;;65.07;40.90;;;;;;;12.20;100.00;95031.66;5025602;28;20484;-75
2022/12/17 16:16:09;;;;;;;60.30;36.90;;;;;;;12.24;100.00;95052.31;5087474;28;20443;-75
2022/12/17 16:18:37;;;;;;;64.97;39.77;;;;;;;12.28;100.00;95060.75;5081441;28;20451;-75
2022/12/17 16:21:05;;;;;;;59.00;38.80;;;;;;;12.27;100.00;95049.41;5094025;28;20479;-75
2022/12/17 16:23:32;;;;;;;81.73;48.60;;;;;;;12.20;100.00;95053.56;5074624;28;20452;-75
2022/12/17 16:26:02;;;;;;;93.23;51.63;;;;;;;12.21;100.00;95064.91;5074363;28;20465;-75
2022/12/17 16:28:30;;;;;;;94.10;57.90;;;;;;;12.25;100.00;95067.13;5081269;28;20459;-77
2022/12/17 16:31:01;;;;;;;59.83;42.43;;;;;;;12.22;100.00;95070.03;5081658;28;20484;-75
2022/12/17 16:33:31;;;;;;;54.17;34.67;;;;;;;12.17;100.00;95079.31;5079413;28;20444;-76
2022/12/17 16:35:58;;;;;;;37.13;27.13;;;;;;;12.14;100.00;95077.75;5083537;28;20452;-76
2022/12/17 16:38:24;;;;;;;39.00;22.40;;;;;;;12.13;100.00;95089.22;5092519;28;20478;-77
2022/12/17 16:40:55;;;;;;;24.50;17.20;;;;;;;12.09;100.00;95085.22;5083556;28;20436;-77
2022/12/17 16:43:22;;;;;;;29.23;17.77;;;;;;;12.10;100.00;95086.88;5091764;28;20940;-76
2022/12/17 16:45:52;;;;;;;22.10;16.07;;;;;;;12.10;100.00;95094.75;5094511;28;20949;-77
2022/12/17 16:48:20;;;;;;;20.50;15.57;;;;;;;12.09;100.00;95098.38;5094565;28;20455;-75
2022/12/17 16:50:47;;;;;;;18.70;12.47;;;;;;;12.09;100.00;95099.19;5094186;28;20881;-76
2022/12/17 16:53:15;;;;;;;19.30;12.53;;;;;;;12.09;100.00;95087.84;5070637;28;20928;-76
2022/12/17 16:55:42;;;;;;;18.50;13.97;;;;;;;12.10;100.00;95105.28;5085660;28;20459;-75
2022/12/17 16:58:09;;;;;;;23.73;15.30;;;;;;;12.08;100.00;95110.69;5093763;28;20447;-75
2022/12/17 17:00:36;;;;;;;39.23;25.50;;;;;;;12.09;100.00;95098.38;5077629;28;20484;-76
2022/12/17 17:03:05;;;;;;;40.23;24.33;;;;;;;12.05;100.00;95105.69;5073764;28;21233;-76
2022/12/17 17:05:33;;;;;;;41.63;29.57;;;;;;;12.03;100.00;95109.44;5081019;28;20461;-75
2022/12/17 17:08:00;;;;;;;46.87;32.17;;;;;;;11.98;100.00;95109.00;5091476;28;20443;-76
2022/12/17 17:10:28;;;;;;;37.23;24.07;;;;;;;11.95;100.00;95115.34;5034313;28;20550;-74
2022/12/17 17:12:55;;;;;;;35.00;20.67;;;;;;;11.90;100.00;95128.06;5087856;28;20450;-76
2022/12/17 17:15:22;;;;;;;28.33;17.00;;;;;;;11.83;100.00;95123.47;5092707;28;20544;-75
2022/12/17 17:17:49;;;;;;;22.80;14.10;;;;;;;11.78;100.00;95121.22;5090966;28;20444;-75
2022/12/17 17:20:18;;;;;;;14.83;11.73;;;;;;;11.75;100.00;95124.09;5027081;28;20443;-76
2022/12/17 17:22:45;;;;;;;17.30;12.40;;;;;;;11.68;100.00;95136.94;5089570;28;20443;-75
2022/12/17 17:25:12;;;;;;;34.63;21.30;;;;;;;11.61;100.00;95138.41;5073380;28;20452;-76
2022/12/17 17:27:38;;;;;;;34.90;22.23;;;;;;;11.64;100.00;95135.53;5073185;28;20448;-76
2022/12/17 17:30:06;;;;;;;26.30;19.37;;;;;;;11.65;100.00;95139.81;5073336;28;20512;-75
2022/12/17 17:32:33;;;;;;;28.90;20.50;;;;;;;11.65;100.00;95146.88;5073606;28;20481;-77
2022/12/17 17:35:00;;;;;;;27.57;20.07;;;;;;;11.66;100.00;95143.28;5022684;28;20810;-76
2022/12/17 17:37:28;;;;;;;27.87;19.20;;;;;;;11.64;100.00;95153.09;5073588;28;20829;-75
2022/12/17 17:39:55;;;;;;;28.80;19.50;;;;;;;11.65;100.00;95149.50;5073514;28;20787;-74
2022/12/17 17:42:21;;;;;;;25.43;18.83;;;;;;;11.65;100.00;95147.72;5073188;28;20440;-74
2022/12/17 17:44:48;;;;;;;25.63;20.40;;;;;;;11.64;100.00;95159.19;5076501;28;20440;-75
2022/12/17 17:47:15;;;;;;;32.83;24.27;;;;;;;11.67;100.00;95155.47;5080006;28;20985;-75
2022/12/17 17:49:42;;;;;;;26.10;19.17;;;;;;;11.65;100.00;95158.22;5080350;28;20778;-75
2022/12/17 17:52:09;;;;;;;24.23;17.17;;;;;;;11.65;100.00;95163.47;5080693;28;20487;-76
2022/12/17 17:54:38;;;;;;;26.20;18.53;;;;;;;11.65;100.00;95168.75;5091387;28;20455;-76
2022/12/17 17:57:09;;;;;;;25.80;18.30;;;;;;;11.67;100.00;95164.19;5086046;28;20558;-75
2022/12/17 17:59:38;;;;;;;20.83;17.73;;;;;;;11.67;100.00;95166.81;5038328;28;20452;-74
2022/12/17 18:02:04;;;;;;;24.30;17.77;;;;;;;11.66;100.00;95172.19;5094539;28;20489;-76
2022/12/17 18:04:31;;;;;;;28.73;19.73;;;;;;;11.66;100.00;95175.66;5100128;28;20786;-78
2022/12/17 18:06:58;;;;;;;22.50;15.20;;;;;;;11.68;100.00;95179.00;5100518;28;20452;-77
2022/12/17 18:09:25;;;;;;;26.50;18.63;;;;;;;11.66;100.00;95190.59;5099771;28;20446;-76
2022/12/17 18:11:53;;;;;;;25.20;19.60;;;;;;;11.63;100.00;95194.31;5099585;28;20490;-75
2022/12/17 18:14:19;;;;;;;24.80;18.53;;;;;;;11.65;100.00;95199.44;5099833;28;20452;-75
2022/12/17 18:16:47;;;;;;;24.73;17.40;;;;;;;11.65;100.00;95208.16;5099875;28;20454;-77
2022/12/17 18:19:16;;;;;;;32.83;18.80;;;;;;;11.61;100.00;95208.56;5100447;28;20643;-78
2022/12/17 18:21:43;;;;;;;26.60;18.97;;;;;;;11.62;100.00;95205.81;5100997;28;20457;-79
2022/12/17 18:24:11;;;;;;;50.10;34.43;;;;;;;11.61;100.00;95214.66;5099516;28;20451;-75
2022/12/17 18:26:41;;;;;;;37.90;25.97;;;;;;;11.61;100.00;95214.66;5099574;28;21070;-75
2022/12/17 18:29:12;;;;;;;29.40;20.13;;;;;;;11.66;100.00;95207.19;5086052;28;20532;-75
2022/12/17 18:31:39;;;;;;;25.30;18.90;;;;;;;11.70;100.00;95218.28;5099041;28;20995;-76
2022/12/17 18:34:07;;;;;;;31.20;18.90;;;;;;;11.69;100.00;95220.09;5099682;28;20458;-77
2022/12/17 18:36:37;;;;;;;30.27;19.60;;;;;;;11.67;100.00;95224.63;5099933;28;20861;-76
2022/12/17 18:39:06;;;;;;;19.37;15.53;;;;;;;11.57;100.00;95231.63;5099118;28;20486;-75
2022/12/17 18:44:20;;;;;;;25.57;18.63;;;;;;;11.13;100.00;95244.00;5099967;28;20898;-75
2022/12/17 18:46:47;;;;;;;27.60;20.10;;;;;;;11.16;100.00;95249.00;5100211;28;20455;-76
2022/12/17 18:49:16;;;;;;;30.93;23.30;;;;;;;11.22;100.00;95247.66;5099390;28;20441;-75
2022/12/17 18:51:46;;;;;;;61.40;35.33;;;;;;;11.22;100.00;95265.22;5099193;28;20834;-76
2022/12/17 18:54:15;;;;;;;66.70;38.00;;;;;;;11.23;100.00;95272.97;5099720;28;20450;-76
2022/12/17 18:56:42;;;;;;;54.13;32.70;;;;;;;11.26;100.00;95267.47;5096736;28;20797;-76
2022/12/17 18:59:11;;;;;;;57.87;31.67;;;;;;;11.31;100.00;95275.81;5043293;28;20439;-75
2022/12/17 19:01:40;;;;;;;47.07;30.60;;;;;;;11.21;100.00;95284.56;5095787;28;20467;-75
2022/12/17 19:04:09;;;;;;;38.10;25.40;;;;;;;10.94;100.00;95298.94;5095755;28;20457;-75
2022/12/17 19:06:37;;;;;;;40.83;26.07;;;;;;;10.97;100.00;95301.31;5095660;28;20462;-75
2022/12/17 19:09:05;;;;;;;41.00;29.07;;;;;;;11.02;100.00;95296.56;5095518;28;20453;-74
2022/12/17 19:11:32;;;;;;;47.00;31.77;;;;;;;10.96;100.00;95306.69;5095494;28;20489;-75
2022/12/17 19:14:00;;;;;;;44.40;30.33;;;;;;;11.02;100.00;95304.44;5095364;28;20447;-75
2022/12/17 19:16:28;;;;;;;53.17;34.03;;;;;;;11.05;100.00;95308.63;5095873;28;20446;-75
2022/12/17 19:18:58;;;;;;;45.07;32.37;;;;;;;11.07;100.00;95320.66;5095264;28;20961;-75
2022/12/17 19:21:25;;;;;;;50.20;33.67;;;;;;;11.06;100.00;95319.00;5093705;28;20508;-76
2022/12/17 19:23:56;;;;;;;69.77;40.37;;;;;;;11.00;100.00;95319.47;5075331;28;20448;-75
2022/12/17 19:26:23;;;;;;;74.10;44.93;;;;;;;10.94;100.00;95319.94;5075419;28;20454;-77
2022/12/17 19:28:52;;;;;;;65.73;44.23;;;;;;;10.97;100.00;95322.31;5075462;28;20455;-75
2022/12/17 19:31:21;;;;;;;69.22;45.72;;;;;;;11.00;100.00;95324.75;5074989;28;20446;-76
2022/12/17 19:33:48;;;;;;;73.77;49.07;;;;;;;11.07;100.00;95328.53;5075226;28;20212;-75
2022/12/17 19:36:20;;;;;;;85.40;52.10;;;;;;;11.11;100.00;95327.34;5074620;28;20478;-75
2022/12/17 19:38:50;;;;;;;86.10;52.50;;;;;;;11.13;100.00;95332.47;5074765;28;20454;-75
2022/12/17 19:41:18;;;;;;;73.13;48.17;;;;;;;11.04;100.00;95334.03;5074570;28;21026;-75
2022/12/17 19:43:46;;;;;;;63.63;40.77;;;;;;;11.08;100.00;95327.59;5039051;28;20440;-75
2022/12/17 19:46:15;;;;;;;49.73;34.83;;;;;;;11.11;100.00;95327.34;5074877;28;20511;-74
2022/12/17 19:48:43;;;;;;;38.60;26.73;;;;;;;11.13;100.00;95335.09;5091280;28;20957;-75
2022/12/17 19:51:13;;;;;;;33.97;24.17;;;;;;;11.18;100.00;95322.41;5095336;28;20450;-75
2022/12/17 19:53:44;;;;;;;40.83;20.67;;;;;;;11.19;100.00;95324.09;5094990;28;20446;-76
2022/12/17 19:56:13;;;;;;;32.20;22.10;;;;;;;11.25;100.00;95333.25;5095286;28;20511;-75
2022/12/17 19:58:40;;;;;;;31.40;22.03;;;;;;;11.25;100.00;95338.50;5095055;28;20453;-75
2022/12/17 20:01:08;;;;;;;33.70;20.87;;;;;;;11.15;100.00;95334.00;5095507;28;20482;-78
2022/12/17 20:03:34;;;;;;;27.97;21.33;;;;;;;11.26;100.00;95351.53;5043042;28;21116;-78
2022/12/17 20:06:02;;;;;;;26.17;19.37;;;;;;;11.33;100.00;95354.50;5076279;28;20513;-78
2022/12/17 20:08:29;;;;;;;24.90;18.63;;;;;;;11.35;100.00;95353.44;5073690;28;20859;-77
2022/12/17 20:10:57;;;;;;;26.87;18.80;;;;;;;11.42;100.00;95361.66;5074822;28;20918;-78
2022/12/17 20:13:24;;;;;;;26.90;19.37;;;;;;;11.38;100.00;95357.59;5074838;28;20479;-78
2022/12/17 20:15:59;;;;;;;26.03;18.30;;;;;;;11.42;100.00;95359.03;5074885;28;20506;-77
2022/12/17 20:18:26;;;;;;;27.37;18.47;;;;;;;11.42;100.00;95372.16;5074669;28;20493;-78
2022/12/17 20:21:00;;;;;;;23.80;18.23;;;;;;;11.46;100.00;95382.28;5074470;28;20833;-78
2022/12/17 20:23:26;;;;;;;23.63;19.70;;;;;;;11.46;100.00;95384.09;5074192;28;20439;-78
2022/12/17 20:26:02;;;;;;;25.33;17.20;;;;;;;11.46;100.00;95384.94;5074908;28;20448;-77
2022/12/17 20:28:29;;;;;;;23.97;19.00;;;;;;;11.43;100.00;95385.16;5074970;28;20439;-78
2022/12/17 20:30:56;;;;;;;22.50;17.63;;;;;;;11.37;100.00;95379.59;5074614;28;20490;-77
2022/12/17 20:33:23;;;;;;;48.73;28.43;;;;;;;11.40;100.00;95381.97;5074438;28;20962;-77
2022/12/17 20:35:49;;;;;;;29.43;19.50;;;;;;;11.23;100.00;95387.72;5075299;28;20452;-76
2022/12/17 20:38:16;;;;;;;20.63;17.43;;;;;;;11.20;100.00;95395.84;5074543;28;20448;-78
2022/12/17 20:40:43;;;;;;;27.73;18.97;;;;;;;11.12;100.00;95397.28;5074854;28;20806;-77
2022/12/17 20:43:12;;;;;;;22.63;17.27;;;;;;;11.14;100.00;95392.75;5039904;28;20452;-78
2022/12/17 20:45:38;;;;;;;24.17;17.27;;;;;;;11.11;100.00;95394.78;5074346;28;20450;-78
2022/12/17 20:48:05;;;;;;;25.87;18.17;;;;;;;11.14;100.00;95400.63;5075148;28;20457;-78
2022/12/17 20:50:32;;;;;;;21.17;16.77;;;;;;;11.07;100.00;95391.56;5074140;28;20428;-77
2022/12/17 20:52:59;;;;;;;20.73;17.40;;;;;;;11.08;100.00;95410.78;5074705;28;20581;-77
2022/12/17 20:55:26;;;;;;;23.17;16.37;;;;;;;10.98;100.00;95420.31;5074779;28;20447;-77
2022/12/17 20:57:53;;;;;;;30.33;19.30;;;;;;;10.95;100.00;95415.31;5074787;28;20447;-76
2022/12/17 21:00:21;;;;;;;25.50;17.47;;;;;;;10.87;100.00;95418.53;5039660;28;20443;-76
2022/12/17 21:02:48;;;;;;;28.93;18.10;;;;;;;10.85;100.00;95423.06;5039595;28;20443;-76
2022/12/17 21:05:16;;;;;;;28.63;20.13;;;;;;;10.85;100.00;95426.53;5073943;28;20509;-77
2022/12/17 21:07:43;;;;;;;22.73;17.60;;;;;;;10.77;100.00;95428.09;5074174;28;20443;-77
2022/12/17 21:10:10;;;;;;;21.90;17.13;;;;;;;10.73;100.00;95429.28;5074161;28;20434;-77
2022/12/17 21:15:18;;;;;;;22.97;16.83;;;;;;;10.68;100.00;95431.41;5041771;28;20427;-76
2022/12/17 21:17:46;;;;;;;24.23;17.13;;;;;;;10.74;100.00;95433.56;5021498;28;20527;-76
2022/12/17 21:20:13;;;;;;;22.80;17.93;;;;;;;10.72;100.00;95443.34;5072860;28;20463;-75
2022/12/17 21:22:40;;;;;;;19.97;14.57;;;;;;;10.76;100.00;95450.03;5073332;28;20452;-74
2022/12/17 21:25:08;;;;;;;20.77;15.00;;;;;;;10.63;100.00;95449.28;5076461;28;20861;-76
2022/12/17 21:27:35;;;;;;;38.27;21.97;;;;;;;10.59;100.00;95447.84;5093457;28;20453;-76
2022/12/17 21:30:03;;;;;;;34.23;20.60;;;;;;;10.50;100.00;95447.59;5093152;28;20437;-75
2022/12/17 21:32:29;;;;;;;24.90;17.00;;;;;;;10.52;100.00;95455.38;5093513;28;20484;-76
2022/12/17 21:34:57;;;;;;;24.03;16.63;;;;;;;10.46;100.00;95454.03;5093165;28;20441;-75
2022/12/17 21:37:24;;;;;;;21.03;16.00;;;;;;;10.46;100.00;95455.81;5092952;28;20456;-76
2022/12/17 21:39:51;;;;;;;20.57;14.97;;;;;;;10.38;100.00;95453.75;5085339;28;20455;-75
2022/12/17 21:45:02;;;;;;;19.90;14.83;;;;;;;10.28;100.00;95458.03;5073071;28;20434;-75
2022/12/17 21:47:29;;;;;;;15.93;12.67;;;;;;;10.22;100.00;95456.72;5073153;28;20453;-76
2022/12/17 21:49:57;;;;;;;20.87;14.00;;;;;;;10.13;100.00;95461.78;5072860;28;20781;-75
2022/12/17 21:52:25;;;;;;;20.13;13.90;;;;;;;10.15;100.00;95467.75;5072761;28;20571;-76
2022/12/17 21:54:51;;;;;;;22.40;15.13;;;;;;;10.17;100.00;95465.84;5037279;28;20442;-75
2022/12/17 21:57:18;;;;;;;23.40;16.57;;;;;;;10.11;100.00;95466.25;5073161;28;20507;-76
2022/12/17 21:59:45;;;;;;;19.10;14.33;;;;;;;10.08;100.00;95471.75;5037156;28;20472;-76
2022/12/17 22:02:12;;;;;;;19.27;14.40;;;;;;;10.00;100.00;95479.34;5023236;28;20546;-75
2022/12/17 22:04:38;;;;;;;19.67;15.07;;;;;;;10.02;100.00;95482.69;5092649;28;20440;-75
2022/12/17 22:07:07;;;;;;;17.20;13.37;;;;;;;9.94;100.00;95476.22;5092772;28;20454;-75
2022/12/17 22:09:33;;;;;;;17.00;13.13;;;;;;;9.88;100.00;95473.22;5093003;28;20444;-76
2022/12/17 22:14:41;;;;;;;16.53;14.00;;;;;;;9.87;100.00;95479.41;5091793;28;20441;-75
2022/12/17 22:17:08;;;;;;;14.40;12.47;;;;;;;9.93;100.00;95490.28;5093243;28;20846;-75
2022/12/17 22:19:35;;;;;;;16.47;12.80;;;;;;;9.92;100.00;95498.25;5040606;28;20830;-75
2022/12/17 22:22:01;;;;;;;15.33;10.90;;;;;;;9.86;100.00;95488.22;5056840;28;21454;-75
2022/12/17 22:24:30;;;;;;;16.00;11.90;;;;;;;9.93;100.00;95503.38;5092907;28;20444;-75
2022/12/17 22:26:59;;;;;;;14.50;12.20;;;;;;;9.94;100.00;95496.34;5092891;28;20437;-75
2022/12/17 22:34:57;;;;;;;17.70;11.90;;;;;;;9.88;100.00;95492.41;5096521;28;20438;-75
2022/12/17 22:37:23;;;;;;;15.20;11.57;;;;;;;9.89;100.00;95503.72;5096717;28;20447;-75
2022/12/17 22:39:52;;;;;;;15.70;12.57;;;;;;;9.91;100.00;95507.06;5096306;28;20444;-76
2022/12/17 22:45:02;;;;;;;16.67;11.97;;;;;;;9.88;100.00;95505.50;5096463;28;20484;-75
2022/12/17 22:47:29;;;;;;;14.30;11.23;;;;;;;9.93;100.00;95513.88;5096713;28;20574;-76
2022/12/17 22:49:56;;;;;;;17.10;12.07;;;;;;;10.01;100.00;95517.72;5096008;28;20843;-75
2022/12/17 22:52:23;;;;;;;15.60;11.90;;;;;;;10.09;100.00;95520.59;5096007;28;20472;-76
2022/12/17 22:54:49;;;;;;;12.50;9.90;;;;;;;10.09;100.00;95520.59;5095988;28;20486;-76
2022/12/17 22:57:17;;;;;;;10.53;9.37;;;;;;;10.16;100.00;95519.25;5095900;28;20839;-75
2022/12/17 22:59:44;;;;;;;23.80;11.07;;;;;;;10.23;100.00;95523.13;5095911;28;20450;-75
2022/12/17 23:02:11;;;;;;;14.07;10.70;;;;;;;10.23;100.00;95533.59;5095851;28;21076;-75
2022/12/17 23:04:38;;;;;;;14.13;10.67;;;;;;;10.21;100.00;95535.50;5095724;28;20459;-75
2022/12/17 23:07:04;;;;;;;23.27;12.97;;;;;;;10.20;100.00;95532.03;5095738;28;20451;-75
2022/12/17 23:09:31;;;;;;;14.97;11.00;;;;;;;10.12;100.00;95542.22;5095645;28;20441;-75
2022/12/17 23:12:49;;;;;;;21.90;13.10;;;;;;;10.10;100.00;95545.88;5096059;28;20447;-75
2022/12/17 23:14:47;;;;;;;20.90;12.70;;;;;;;10.08;100.00;95546.00;5095317;28;20444;-76
2022/12/17 23:17:13;;;;;;;15.73;10.70;;;;;;;10.03;100.00;95553.38;5095473;28;20437;-74
2022/12/17 23:19:40;;;;;;;21.90;14.30;;;;;;;9.94;100.00;95554.88;5095428;28;20486;-75
2022/12/17 23:22:07;;;;;;;13.57;9.10;;;;;;;9.92;100.00;95561.16;5095349;28;20444;-75
2022/12/17 23:24:34;;;;;;;12.17;9.90;;;;;;;9.85;100.00;95566.03;5095171;28;20502;-75
2022/12/17 23:27:01;;;;;;;18.83;12.53;;;;;;;9.81;100.00;95572.41;5095449;28;20455;-74
2022/12/17 23:29:27;;;;;;;15.73;10.53;;;;;;;9.75;100.00;95572.84;5059441;28;20445;-75
2022/12/17 23:31:55;;;;;;;14.23;10.20;;;;;;;9.64;100.00;95570.16;5095018;28;20447;-74
2022/12/17 23:34:23;;;;;;;10.30;8.60;;;;;;;9.60;100.00;95573.94;5095322;28;20485;-75
2022/12/17 23:36:50;;;;;;;12.37;8.90;;;;;;;9.54;100.00;95564.72;5094936;28;20919;-75
2022/12/17 23:39:16;;;;;;;14.87;8.60;;;;;;;9.47;100.00;95571.31;5075865;28;20441;-75
2022/12/17 23:41:43;;;;;;;12.20;7.67;;;;;;;9.43;100.00;95580.34;5095059;28;20445;-75
2022/12/17 23:44:10;;;;;;;7.90;7.20;;;;;;;9.40;100.00;95585.78;5095059;28;20436;-75
2022/12/17 23:46:37;;;;;;;9.93;7.10;;;;;;;9.36;100.00;95593.97;5095280;28;20479;-75
2022/12/17 23:49:05;;;;;;;9.67;7.93;;;;;;;9.26;100.00;95594.59;5094789;28;20462;-75
2022/12/17 23:51:33;;;;;;;6.90;6.03;;;;;;;9.24;100.00;95593.84;5095178;28;20506;-75
2022/12/17 23:53:59;;;;;;;7.13;6.43;;;;;;;9.25;100.00;95599.91;5095010;28;20487;-74
2022/12/17 23:56:27;;;;;;;8.67;6.93;;;;;;;9.22;100.00;95603.59;5094853;28;20860;-75
2022/12/17 23:58:56;;;;;;;10.10;7.83;;;;;;;9.08;100.00;95603.69;5094974;28;20486;-75
